sensor_id;sensor_type;location;lat;lon;timestamp;pressure;altitude;pressure_sealevel;temperature;humidity
79144;BME280;68551;47.484;19.092;2023-04-06T00:00:37;100607.25;;;3.77;40.50
79144;BME280;68551;47.484;19.092;2023-04-06T00:03:40;100609.94;;;3.69;41.93
79144;BME280;68551;47.484;19.092;2023-04-06T00:06:45;100613.03;;;3.58;43.16
79144;BME280;68551;47.484;19.092;2023-04-06T00:09:53;100599.44;;;3.43;43.14
79144;BME280;68551;47.484;19.092;2023-04-06T00:12:58;100603.00;;;3.35;43.88
79144;BME280;68551;47.484;19.092;2023-04-06T00:16:02;100598.63;;;3.26;44.67
79144;BME280;68551;47.484;19.092;2023-04-06T00:19:05;100590.91;;;3.15;45.21
79144;BME280;68551;47.484;19.092;2023-04-06T00:22:08;100576.78;;;3.13;44.68
79144;BME280;68551;47.484;19.092;2023-04-06T00:25:13;100585.19;;;3.10;45.62
79144;BME280;68551;47.484;19.092;2023-04-06T00:28:19;100589.94;;;3.00;45.46
79144;BME280;68551;47.484;19.092;2023-04-06T00:31:27;100586.06;;;3.02;45.58
79144;BME280;68551;47.484;19.092;2023-04-06T00:34:32;100582.19;;;3.05;46.74
79144;BME280;68551;47.484;19.092;2023-04-06T00:37:34;100576.13;;;3.03;46.45
79144;BME280;68551;47.484;19.092;2023-04-06T00:40:39;100565.38;;;2.87;46.42
79144;BME280;68551;47.484;19.092;2023-04-06T00:43:41;100581.38;;;2.80;46.99
79144;BME280;68551;47.484;19.092;2023-04-06T00:46:46;100572.47;;;2.63;47.00
79144;BME280;68551;47.484;19.092;2023-04-06T00:49:49;100577.16;;;2.69;47.00
79144;BME280;68551;47.484;19.092;2023-04-06T00:52:53;100571.47;;;2.64;46.87
79144;BME280;68551;47.484;19.092;2023-04-06T00:56:00;100577.00;;;2.71;47.14
79144;BME280;68551;47.484;19.092;2023-04-06T00:59:17;100572.47;;;2.71;47.24
79144;BME280;68551;47.484;19.092;2023-04-06T01:02:23;100583.22;;;2.71;47.60
79144;BME280;68551;47.484;19.092;2023-04-06T01:05:28;100574.84;;;2.66;47.24
79144;BME280;68551;47.484;19.092;2023-04-06T01:08:35;100575.66;;;2.59;47.66
79144;BME280;68551;47.484;19.092;2023-04-06T01:11:49;100581.03;;;2.59;47.76
79144;BME280;68551;47.484;19.092;2023-04-06T01:14:54;100571.63;;;2.46;48.02
79144;BME280;68551;47.484;19.092;2023-04-06T01:18:01;100578.84;;;2.46;47.87
79144;BME280;68551;47.484;19.092;2023-04-06T01:21:04;100584.03;;;2.39;48.10
79144;BME280;68551;47.484;19.092;2023-04-06T01:24:10;100573.44;;;2.30;48.42
79144;BME280;68551;47.484;19.092;2023-04-06T01:27:33;100575.50;;;2.36;48.43
79144;BME280;68551;47.484;19.092;2023-04-06T01:31:04;100579.50;;;2.40;47.76
79144;BME280;68551;47.484;19.092;2023-04-06T01:34:23;100568.09;;;2.46;47.55
79144;BME280;68551;47.484;19.092;2023-04-06T01:37:28;100572.13;;;2.58;47.73
79144;BME280;68551;47.484;19.092;2023-04-06T01:40:39;100583.22;;;2.71;47.69
79144;BME280;68551;47.484;19.092;2023-04-06T01:43:42;100565.41;;;2.54;48.35
79144;BME280;68551;47.484;19.092;2023-04-06T01:46:45;100566.09;;;2.64;48.33
79144;BME280;68551;47.484;19.092;2023-04-06T01:49:52;100569.78;;;2.63;48.68
79144;BME280;68551;47.484;19.092;2023-04-06T01:52:58;100568.44;;;2.75;48.24
79144;BME280;68551;47.484;19.092;2023-04-06T01:56:04;100571.09;;;2.67;48.60
79144;BME280;68551;47.484;19.092;2023-04-06T01:59:14;100566.25;;;2.63;48.32
79144;BME280;68551;47.484;19.092;2023-04-06T02:02:18;100558.03;;;2.48;49.38
79144;BME280;68551;47.484;19.092;2023-04-06T02:05:31;100545.06;;;2.35;49.68
79144;BME280;68551;47.484;19.092;2023-04-06T02:08:53;100563.72;;;2.29;50.63
79144;BME280;68551;47.484;19.092;2023-04-06T02:11:58;100560.00;;;2.22;51.50
79144;BME280;68551;47.484;19.092;2023-04-06T02:15:01;100561.00;;;2.12;51.57
79144;BME280;68551;47.484;19.092;2023-04-06T02:18:03;100549.88;;;1.99;51.74
79144;BME280;68551;47.484;19.092;2023-04-06T02:21:05;100544.84;;;1.96;52.25
79144;BME280;68551;47.484;19.092;2023-04-06T02:24:08;100552.25;;;1.94;52.42
79144;BME280;68551;47.484;19.092;2023-04-06T02:27:16;100555.78;;;1.95;51.79
79144;BME280;68551;47.484;19.092;2023-04-06T02:30:21;100550.56;;;1.93;52.59
79144;BME280;68551;47.484;19.092;2023-04-06T02:33:26;100537.75;;;1.79;53.31
79144;BME280;68551;47.484;19.092;2023-04-06T02:36:31;100536.91;;;1.78;52.83
79144;BME280;68551;47.484;19.092;2023-04-06T02:39:36;100532.53;;;1.77;53.68
79144;BME280;68551;47.484;19.092;2023-04-06T02:42:43;100547.81;;;1.85;53.50
79144;BME280;68551;47.484;19.092;2023-04-06T02:45:50;100534.38;;;1.77;53.10
79144;BME280;68551;47.484;19.092;2023-04-06T02:48:59;100538.78;;;1.86;52.38
79144;BME280;68551;47.484;19.092;2023-04-06T02:52:05;100530.06;;;1.92;52.05
79144;BME280;68551;47.484;19.092;2023-04-06T02:55:11;100545.19;;;1.93;53.02
79144;BME280;68551;47.484;19.092;2023-04-06T02:58:13;100543.13;;;1.87;52.07
79144;BME280;68551;47.484;19.092;2023-04-06T03:01:24;100520.28;;;1.75;52.18
79144;BME280;68551;47.484;19.092;2023-04-06T03:04:31;100525.47;;;1.68;52.64
79144;BME280;68551;47.484;19.092;2023-04-06T03:07:36;100518.22;;;1.61;53.78
79144;BME280;68551;47.484;19.092;2023-04-06T03:10:38;100527.28;;;1.60;53.63
79144;BME280;68551;47.484;19.092;2023-04-06T03:13:47;100526.75;;;1.48;53.86
79144;BME280;68551;47.484;19.092;2023-04-06T03:16:54;100535.81;;;1.55;54.56
79144;BME280;68551;47.484;19.092;2023-04-06T03:19:58;100534.34;;;1.61;53.50
79144;BME280;68551;47.484;19.092;2023-04-06T03:23:05;100537.53;;;1.64;53.66
79144;BME280;68551;47.484;19.092;2023-04-06T03:26:12;100532.69;;;1.68;52.88
79144;BME280;68551;47.484;19.092;2023-04-06T03:29:17;100520.22;;;1.59;51.69
79144;BME280;68551;47.484;19.092;2023-04-06T03:32:20;100542.06;;;1.64;53.78
79144;BME280;68551;47.484;19.092;2023-04-06T03:35:24;100544.06;;;1.54;54.36
79144;BME280;68551;47.484;19.092;2023-04-06T03:38:26;100547.75;;;1.53;53.82
79144;BME280;68551;47.484;19.092;2023-04-06T03:41:29;100539.63;;;1.45;52.82
79144;BME280;68551;47.484;19.092;2023-04-06T03:44:51;100542.03;;;1.56;53.05
79144;BME280;68551;47.484;19.092;2023-04-06T03:47:59;100542.75;;;1.66;52.27
79144;BME280;68551;47.484;19.092;2023-04-06T03:51:02;100539.22;;;1.65;52.20
79144;BME280;68551;47.484;19.092;2023-04-06T03:54:24;100532.81;;;1.58;53.08
79144;BME280;68551;47.484;19.092;2023-04-06T03:57:27;100543.38;;;1.52;53.25
79144;BME280;68551;47.484;19.092;2023-04-06T04:00:29;100543.69;;;1.49;53.29
79144;BME280;68551;47.484;19.092;2023-04-06T04:03:33;100532.28;;;1.47;52.88
79144;BME280;68551;47.484;19.092;2023-04-06T04:06:36;100537.97;;;1.43;54.29
79144;BME280;68551;47.484;19.092;2023-04-06T04:09:42;100532.59;;;1.43;53.56
79144;BME280;68551;47.484;19.092;2023-04-06T04:12:50;100527.22;;;1.43;54.19
79144;BME280;68551;47.484;19.092;2023-04-06T04:15:55;100522.84;;;1.42;54.40
79144;BME280;68551;47.484;19.092;2023-04-06T04:18:57;100526.22;;;1.45;54.50
79144;BME280;68551;47.484;19.092;2023-04-06T04:22:06;100524.91;;;1.49;54.17
79144;BME280;68551;47.484;19.092;2023-04-06T04:25:13;100506.06;;;1.40;54.26
79144;BME280;68551;47.484;19.092;2023-04-06T04:28:20;100520.31;;;1.41;54.49
79144;BME280;68551;47.484;19.092;2023-04-06T04:31:28;100525.91;;;1.56;54.81
79144;BME280;68551;47.484;19.092;2023-04-06T04:34:38;100521.38;;;1.56;54.93
79144;BME280;68551;47.484;19.092;2023-04-06T04:37:49;100514.22;;;1.65;54.31
79144;BME280;68551;47.484;19.092;2023-04-06T04:40:52;100509.16;;;1.70;54.62
79144;BME280;68551;47.484;19.092;2023-04-06T04:43:56;100502.31;;;1.84;55.02
79144;BME280;68551;47.484;19.092;2023-04-06T04:47:00;100505.53;;;1.87;55.20
79144;BME280;68551;47.484;19.092;2023-04-06T04:50:14;100500.84;;;1.89;54.74
79144;BME280;68551;47.484;19.092;2023-04-06T04:53:20;100513.94;;;2.00;54.82
79144;BME280;68551;47.484;19.092;2023-04-06T04:56:28;100489.06;;;1.98;54.51
79144;BME280;68551;47.484;19.092;2023-04-06T04:59:44;100502.88;;;2.03;54.78
79144;BME280;68551;47.484;19.092;2023-04-06T05:02:51;100511.28;;;2.17;54.27
79144;BME280;68551;47.484;19.092;2023-04-06T05:06:02;100507.56;;;2.26;53.26
79144;BME280;68551;47.484;19.092;2023-04-06T05:09:11;100480.69;;;2.26;53.88
79144;BME280;68551;47.484;19.092;2023-04-06T05:12:20;100492.44;;;2.65;51.99
79144;BME280;68551;47.484;19.092;2023-04-06T05:15:36;100484.81;;;2.85;50.10
79144;BME280;68551;47.484;19.092;2023-04-06T05:18:54;100476.75;;;2.93;50.54
79144;BME280;68551;47.484;19.092;2023-04-06T05:22:03;100472.66;;;3.05;49.59
79144;BME280;68551;47.484;19.092;2023-04-06T05:25:09;100472.13;;;3.18;48.56
79144;BME280;68551;47.484;19.092;2023-04-06T05:28:15;100480.81;;;3.36;46.93
79144;BME280;68551;47.484;19.092;2023-04-06T05:31:18;100472.59;;;3.61;45.92
79144;BME280;68551;47.484;19.092;2023-04-06T05:34:24;100466.09;;;3.78;44.21
79144;BME280;68551;47.484;19.092;2023-04-06T05:37:28;100456.31;;;3.77;42.64
79144;BME280;68551;47.484;19.092;2023-04-06T05:40:36;100464.47;;;3.91;43.46
79144;BME280;68551;47.484;19.092;2023-04-06T05:43:49;100457.81;;;4.25;42.13
79144;BME280;68551;47.484;19.092;2023-04-06T05:46:52;100444.31;;;4.25;41.01
79144;BME280;68551;47.484;19.092;2023-04-06T05:49:54;100450.31;;;4.50;41.34
79144;BME280;68551;47.484;19.092;2023-04-06T05:53:06;100435.38;;;4.62;40.94
79144;BME280;68551;47.484;19.092;2023-04-06T05:56:15;100452.63;;;4.76;40.88
79144;BME280;68551;47.484;19.092;2023-04-06T05:59:18;100454.00;;;4.86;40.73
79144;BME280;68551;47.484;19.092;2023-04-06T06:02:23;100448.03;;;5.06;40.36
79144;BME280;68551;47.484;19.092;2023-04-06T06:05:28;100448.97;;;5.13;39.90
79144;BME280;68551;47.484;19.092;2023-04-06T06:08:35;100448.50;;;5.09;39.82
79144;BME280;68551;47.484;19.092;2023-04-06T06:11:44;100435.63;;;5.26;40.48
79144;BME280;68551;47.484;19.092;2023-04-06T06:14:51;100435.72;;;5.47;38.75
79144;BME280;68551;47.484;19.092;2023-04-06T06:17:57;100441.25;;;4.95;39.88
79144;BME280;68551;47.484;19.092;2023-04-06T06:21:01;100435.00;;;5.09;39.63
79144;BME280;68551;47.484;19.092;2023-04-06T06:24:06;100439.00;;;4.84;40.39
79144;BME280;68551;47.484;19.092;2023-04-06T06:27:09;100418.06;;;5.01;40.20
79144;BME280;68551;47.484;19.092;2023-04-06T06:30:13;100422.06;;;5.19;39.67
79144;BME280;68551;47.484;19.092;2023-04-06T06:33:16;100428.63;;;5.46;39.45
79144;BME280;68551;47.484;19.092;2023-04-06T06:36:20;100418.59;;;5.97;38.10
79144;BME280;68551;47.484;19.092;2023-04-06T06:39:25;100408.94;;;6.37;36.98
79144;BME280;68551;47.484;19.092;2023-04-06T06:42:32;100411.06;;;6.42;36.09
79144;BME280;68551;47.484;19.092;2023-04-06T06:45:49;100413.13;;;6.40;36.27
79144;BME280;68551;47.484;19.092;2023-04-06T06:48:58;100413.88;;;6.55;36.06
79144;BME280;68551;47.484;19.092;2023-04-06T06:52:00;100408.66;;;6.54;36.01
79144;BME280;68551;47.484;19.092;2023-04-06T06:55:04;100394.31;;;6.60;34.92
79144;BME280;68551;47.484;19.092;2023-04-06T06:58:10;100402.44;;;6.88;34.83
79144;BME280;68551;47.484;19.092;2023-04-06T07:01:13;100394.63;;;7.13;34.20
79144;BME280;68551;47.484;19.092;2023-04-06T07:04:15;100392.19;;;7.31;33.27
79144;BME280;68551;47.484;19.092;2023-04-06T07:07:18;100394.63;;;7.13;33.45
79144;BME280;68551;47.484;19.092;2023-04-06T07:10:23;100402.19;;;6.89;33.42
79144;BME280;68551;47.484;19.092;2023-04-06T07:13:28;100390.88;;;7.14;32.63
79144;BME280;68551;47.484;19.092;2023-04-06T07:16:33;100388.00;;;7.22;32.63
79144;BME280;68551;47.484;19.092;2023-04-06T07:19:39;100385.00;;;7.58;32.36
79144;BME280;68551;47.484;19.092;2023-04-06T07:22:45;100402.38;;;8.03;30.98
79144;BME280;68551;47.484;19.092;2023-04-06T07:25:47;100405.47;;;7.87;31.79
79144;BME280;68551;47.484;19.092;2023-04-06T07:28:52;100412.00;;;8.25;31.26
79144;BME280;68551;47.484;19.092;2023-04-06T07:31:57;100398.47;;;8.51;30.32
79144;BME280;68551;47.484;19.092;2023-04-06T07:35:03;100397.81;;;8.49;30.37
79144;BME280;68551;47.484;19.092;2023-04-06T07:38:08;100392.38;;;8.10;31.31
79144;BME280;68551;47.484;19.092;2023-04-06T07:41:10;100398.00;;;8.08;31.91
79144;BME280;68551;47.484;19.092;2023-04-06T07:44:16;100389.59;;;7.64;31.73
79144;BME280;68551;47.484;19.092;2023-04-06T07:47:19;100397.31;;;7.67;32.50
79144;BME280;68551;47.484;19.092;2023-04-06T07:50:21;100395.88;;;7.71;32.03
79144;BME280;68551;47.484;19.092;2023-04-06T07:53:27;100393.66;;;7.27;32.58
79144;BME280;68551;47.484;19.092;2023-04-06T07:56:32;100399.34;;;7.52;32.13
79144;BME280;68551;47.484;19.092;2023-04-06T07:59:34;100400.00;;;6.99;32.81
79144;BME280;68551;47.484;19.092;2023-04-06T08:02:37;100396.44;;;7.53;32.37
79144;BME280;68551;47.484;19.092;2023-04-06T08:05:42;100388.59;;;8.04;31.39
79144;BME280;68551;47.484;19.092;2023-04-06T08:08:44;100382.94;;;7.79;31.70
79144;BME280;68551;47.484;19.092;2023-04-06T08:11:46;100376.88;;;7.58;32.56
79144;BME280;68551;47.484;19.092;2023-04-06T08:14:51;100388.59;;;7.85;32.40
79144;BME280;68551;47.484;19.092;2023-04-06T08:17:56;100371.91;;;7.94;31.64
79144;BME280;68551;47.484;19.092;2023-04-06T08:20:59;100373.56;;;7.82;32.12
79144;BME280;68551;47.484;19.092;2023-04-06T08:24:01;100372.53;;;7.83;32.21
79144;BME280;68551;47.484;19.092;2023-04-06T08:27:11;100369.81;;;8.03;31.97
79144;BME280;68551;47.484;19.092;2023-04-06T08:30:17;100369.81;;;8.16;32.33
79144;BME280;68551;47.484;19.092;2023-04-06T08:33:21;100373.16;;;7.92;32.31
79144;BME280;68551;47.484;19.092;2023-04-06T08:36:25;100371.00;;;7.54;32.67
79144;BME280;68551;47.484;19.092;2023-04-06T08:39:31;100376.25;;;7.75;32.87
79144;BME280;68551;47.484;19.092;2023-04-06T08:42:40;100357.06;;;7.90;33.12
79144;BME280;68551;47.484;19.092;2023-04-06T08:45:51;100360.66;;;8.50;31.48
79144;BME280;68551;47.484;19.092;2023-04-06T08:49:02;100365.19;;;8.76;30.90
79144;BME280;68551;47.484;19.092;2023-04-06T08:52:10;100344.88;;;9.36;29.40
79144;BME280;68551;47.484;19.092;2023-04-06T08:55:18;100365.25;;;9.58;29.70
79144;BME280;68551;47.484;19.092;2023-04-06T08:58:21;100362.19;;;9.42;29.58
79144;BME280;68551;47.484;19.092;2023-04-06T09:01:39;100350.22;;;10.19;29.18
79144;BME280;68551;47.484;19.092;2023-04-06T09:04:48;100349.53;;;9.67;29.10
79144;BME280;68551;47.484;19.092;2023-04-06T09:07:55;100355.47;;;9.06;31.09
79144;BME280;68551;47.484;19.092;2023-04-06T09:11:01;100346.63;;;9.62;29.62
79144;BME280;68551;47.484;19.092;2023-04-06T09:14:06;100344.56;;;10.14;28.88
79144;BME280;68551;47.484;19.092;2023-04-06T09:17:22;100340.44;;;10.05;29.11
79144;BME280;68551;47.484;19.092;2023-04-06T09:20:25;100338.41;;;10.25;29.12
79144;BME280;68551;47.484;19.092;2023-04-06T09:23:32;100333.03;;;10.12;29.01
79144;BME280;68551;47.484;19.092;2023-04-06T09:26:45;100339.69;;;9.66;29.95
79144;BME280;68551;47.484;19.092;2023-04-06T09:29:48;100331.78;;;9.58;29.41
79144;BME280;68551;47.484;19.092;2023-04-06T09:32:54;100337.22;;;9.58;29.59
79144;BME280;68551;47.484;19.092;2023-04-06T09:35:58;100339.84;;;8.88;29.96
79144;BME280;68551;47.484;19.092;2023-04-06T09:39:04;100322.44;;;8.38;30.13
79144;BME280;68551;47.484;19.092;2023-04-06T09:42:09;100334.97;;;7.93;30.39
79144;BME280;68551;47.484;19.092;2023-04-06T09:45:14;100331.63;;;8.04;30.71
79144;BME280;68551;47.484;19.092;2023-04-06T09:48:17;100326.84;;;8.39;30.58
79144;BME280;68551;47.484;19.092;2023-04-06T09:51:23;100331.59;;;8.50;29.42
79144;BME280;68551;47.484;19.092;2023-04-06T09:54:29;100331.78;;;8.69;29.06
79144;BME280;68551;47.484;19.092;2023-04-06T09:57:58;100328.19;;;8.81;29.32
79144;BME280;68551;47.484;19.092;2023-04-06T10:01:10;100321.81;;;8.36;29.77
79144;BME280;68551;47.484;19.092;2023-04-06T10:04:39;100325.97;;;8.19;30.03
79144;BME280;68551;47.484;19.092;2023-04-06T10:07:46;100316.56;;;8.28;29.89
79144;BME280;68551;47.484;19.092;2023-04-06T10:11:03;100315.00;;;8.85;28.79
79144;BME280;68551;47.484;19.092;2023-04-06T10:14:09;100316.84;;;8.91;28.70
79144;BME280;68551;47.484;19.092;2023-04-06T10:17:11;100315.94;;;8.52;30.03
79144;BME280;68551;47.484;19.092;2023-04-06T10:20:38;100302.50;;;8.71;29.85
79144;BME280;68551;47.484;19.092;2023-04-06T10:23:48;100297.44;;;8.87;29.31
79144;BME280;68551;47.484;19.092;2023-04-06T10:27:00;100301.22;;;8.80;29.60
79144;BME280;68551;47.484;19.092;2023-04-06T10:30:05;100287.59;;;8.86;29.74
79144;BME280;68551;47.484;19.092;2023-04-06T10:33:20;100294.34;;;8.71;30.04
79144;BME280;68551;47.484;19.092;2023-04-06T10:36:25;100289.91;;;8.89;30.25
79144;BME280;68551;47.484;19.092;2023-04-06T10:39:28;100264.94;;;8.68;29.53
79144;BME280;68551;47.484;19.092;2023-04-06T10:42:37;100272.69;;;9.02;28.90
79144;BME280;68551;47.484;19.092;2023-04-06T10:45:42;100284.44;;;8.96;29.26
79144;BME280;68551;47.484;19.092;2023-04-06T10:48:48;100264.97;;;8.99;29.60
79144;BME280;68551;47.484;19.092;2023-04-06T10:51:54;100275.59;;;9.07;29.82
79144;BME280;68551;47.484;19.092;2023-04-06T10:54:57;100265.25;;;8.84;30.27
79144;BME280;68551;47.484;19.092;2023-04-06T10:57:59;100253.75;;;8.89;28.61
79144;BME280;68551;47.484;19.092;2023-04-06T11:01:03;100270.25;;;8.94;28.41
79144;BME280;68551;47.484;19.092;2023-04-06T11:04:16;100267.25;;;9.09;28.81
79144;BME280;68551;47.484;19.092;2023-04-06T11:07:25;100269.81;;;9.29;28.44
79144;BME280;68551;47.484;19.092;2023-04-06T11:10:33;100264.44;;;8.84;28.37
79144;BME280;68551;47.484;19.092;2023-04-06T11:16:51;100256.69;;;9.26;28.54
79144;BME280;68551;47.484;19.092;2023-04-06T11:19:56;100261.66;;;9.29;27.60
79144;BME280;68551;47.484;19.092;2023-04-06T11:22:59;100246.59;;;9.33;28.34
79144;BME280;68551;47.484;19.092;2023-04-06T11:26:04;100245.63;;;9.52;28.15
79144;BME280;68551;47.484;19.092;2023-04-06T11:29:06;100252.06;;;9.57;27.60
79144;BME280;68551;47.484;19.092;2023-04-06T11:32:21;100248.50;;;9.57;27.79
79144;BME280;68551;47.484;19.092;2023-04-06T11:35:26;100247.13;;;9.48;27.15
79144;BME280;68551;47.484;19.092;2023-04-06T11:38:29;100225.16;;;9.43;27.80
79144;BME280;68551;47.484;19.092;2023-04-06T11:41:32;100237.72;;;9.44;27.56
79144;BME280;68551;47.484;19.092;2023-04-06T11:44:40;100240.31;;;9.64;27.42
79144;BME280;68551;47.484;19.092;2023-04-06T11:47:54;100231.00;;;9.71;27.25
79144;BME280;68551;47.484;19.092;2023-04-06T11:50:58;100228.56;;;9.38;27.38
79144;BME280;68551;47.484;19.092;2023-04-06T11:54:05;100227.53;;;9.39;27.18
79144;BME280;68551;47.484;19.092;2023-04-06T11:57:14;100230.78;;;9.16;27.33
79144;BME280;68551;47.484;19.092;2023-04-06T12:00:17;100235.63;;;9.14;27.42
79144;BME280;68551;47.484;19.092;2023-04-06T12:03:20;100229.31;;;9.20;27.38
79144;BME280;68551;47.484;19.092;2023-04-06T12:06:22;100213.53;;;9.04;28.32
79144;BME280;68551;47.484;19.092;2023-04-06T12:09:27;100222.56;;;9.30;28.32
79144;BME280;68551;47.484;19.092;2023-04-06T12:12:32;100229.63;;;8.99;28.72
79144;BME280;68551;47.484;19.092;2023-04-06T12:15:37;100228.59;;;9.00;28.51
79144;BME280;68551;47.484;19.092;2023-04-06T12:18:42;100221.75;;;8.91;28.44
79144;BME280;68551;47.484;19.092;2023-04-06T12:21:47;100219.16;;;9.09;28.06
79144;BME280;68551;47.484;19.092;2023-04-06T12:24:51;100218.63;;;9.26;27.54
79144;BME280;68551;47.484;19.092;2023-04-06T12:27:56;100213.00;;;9.20;27.96
79144;BME280;68551;47.484;19.092;2023-04-06T12:30:59;100208.94;;;9.36;27.40
79144;BME280;68551;47.484;19.092;2023-04-06T12:34:02;100219.00;;;9.29;27.89
79144;BME280;68551;47.484;19.092;2023-04-06T12:37:07;100207.56;;;9.52;27.22
79144;BME280;68551;47.484;19.092;2023-04-06T12:40:10;100208.19;;;9.72;27.28
79144;BME280;68551;47.484;19.092;2023-04-06T12:43:13;100198.97;;;9.73;27.20
79144;BME280;68551;47.484;19.092;2023-04-06T12:46:19;100199.69;;;9.87;27.87
79144;BME280;68551;47.484;19.092;2023-04-06T12:49:22;100207.59;;;9.95;28.86
79144;BME280;68551;47.484;19.092;2023-04-06T12:52:29;100196.34;;;10.10;28.79
79144;BME280;68551;47.484;19.092;2023-04-06T12:55:36;100193.94;;;10.20;27.94
79144;BME280;68551;47.484;19.092;2023-04-06T12:58:41;100200.63;;;10.17;28.58
79144;BME280;68551;47.484;19.092;2023-04-06T13:01:46;100207.06;;;10.05;28.25
79144;BME280;68551;47.484;19.092;2023-04-06T13:04:49;100208.56;;;10.01;28.80
79144;BME280;68551;47.484;19.092;2023-04-06T13:07:52;100202.22;;;10.07;28.50
79144;BME280;68551;47.484;19.092;2023-04-06T13:10:57;100191.03;;;10.15;29.53
79144;BME280;68551;47.484;19.092;2023-04-06T13:13:59;100195.06;;;10.30;28.87
79144;BME280;68551;47.484;19.092;2023-04-06T13:17:02;100179.38;;;10.08;29.70
79144;BME280;68551;47.484;19.092;2023-04-06T13:20:05;100180.22;;;10.08;29.06
79144;BME280;68551;47.484;19.092;2023-04-06T13:23:10;100190.63;;;10.11;30.04
79144;BME280;68551;47.484;19.092;2023-04-06T13:26:13;100189.81;;;10.11;29.61
79144;BME280;68551;47.484;19.092;2023-04-06T13:29:17;100181.28;;;10.07;29.89
79144;BME280;68551;47.484;19.092;2023-04-06T13:32:22;100178.66;;;10.19;29.26
79144;BME280;68551;47.484;19.092;2023-04-06T13:35:24;100177.78;;;10.00;29.95
79144;BME280;68551;47.484;19.092;2023-04-06T13:38:31;100172.56;;;10.23;30.62
79144;BME280;68551;47.484;19.092;2023-04-06T13:41:38;100171.63;;;10.29;29.98
79144;BME280;68551;47.484;19.092;2023-04-06T13:44:43;100186.53;;;10.27;30.15
79144;BME280;68551;47.484;19.092;2023-04-06T13:47:51;100190.28;;;9.65;33.23
79144;BME280;68551;47.484;19.092;2023-04-06T13:50:54;100209.66;;;9.50;33.56
79144;BME280;68551;47.484;19.092;2023-04-06T13:53:57;100204.84;;;9.20;34.82
79144;BME280;68551;47.484;19.092;2023-04-06T13:57:01;100193.63;;;9.10;34.51
79144;BME280;68551;47.484;19.092;2023-04-06T14:00:07;100188.28;;;8.97;34.26
79144;BME280;68551;47.484;19.092;2023-04-06T14:03:09;100189.13;;;8.98;34.17
79144;BME280;68551;47.484;19.092;2023-04-06T14:06:14;100191.44;;;9.26;33.72
79144;BME280;68551;47.484;19.092;2023-04-06T14:09:34;100181.03;;;9.41;32.94
79144;BME280;68551;47.484;19.092;2023-04-06T14:12:44;100184.06;;;9.33;32.25
79144;BME280;68551;47.484;19.092;2023-04-06T14:15:49;100168.34;;;9.35;32.86
79144;BME280;68551;47.484;19.092;2023-04-06T14:18:54;100176.44;;;9.41;31.40
79144;BME280;68551;47.484;19.092;2023-04-06T14:21:59;100173.06;;;9.46;32.37
79144;BME280;68551;47.484;19.092;2023-04-06T14:25:04;100186.88;;;9.44;32.30
79144;BME280;68551;47.484;19.092;2023-04-06T14:28:06;100182.16;;;9.58;31.91
79144;BME280;68551;47.484;19.092;2023-04-06T14:31:13;100181.66;;;9.43;31.60
79144;BME280;68551;47.484;19.092;2023-04-06T14:34:17;100178.84;;;9.00;32.62
79144;BME280;68551;47.484;19.092;2023-04-06T14:37:19;100176.81;;;8.95;33.05
79144;BME280;68551;47.484;19.092;2023-04-06T14:40:23;100180.28;;;9.02;32.40
79144;BME280;68551;47.484;19.092;2023-04-06T14:43:26;100183.88;;;9.28;32.81
79144;BME280;68551;47.484;19.092;2023-04-06T14:46:33;100181.72;;;9.11;33.73
79144;BME280;68551;47.484;19.092;2023-04-06T14:49:38;100200.28;;;9.14;34.03
79144;BME280;68551;47.484;19.092;2023-04-06T14:52:40;100179.19;;;8.27;36.04
79144;BME280;68551;47.484;19.092;2023-04-06T14:55:42;100197.25;;;8.60;35.81
79144;BME280;68551;47.484;19.092;2023-04-06T14:58:48;100201.75;;;8.79;35.34
79144;BME280;68551;47.484;19.092;2023-04-06T15:01:56;100197.94;;;8.86;35.99
79144;BME280;68551;47.484;19.092;2023-04-06T15:04:58;100203.84;;;8.77;36.89
79144;BME280;68551;47.484;19.092;2023-04-06T15:08:01;100204.66;;;8.84;37.07
79144;BME280;68551;47.484;19.092;2023-04-06T15:11:04;100208.25;;;8.78;37.62
79144;BME280;68551;47.484;19.092;2023-04-06T15:14:06;100203.88;;;8.70;38.59
79144;BME280;68551;47.484;19.092;2023-04-06T15:17:09;100218.91;;;8.73;39.49
79144;BME280;68551;47.484;19.092;2023-04-06T15:20:11;100211.09;;;8.51;41.50
79144;BME280;68551;47.484;19.092;2023-04-06T15:23:13;100216.56;;;8.38;42.29
79144;BME280;68551;47.484;19.092;2023-04-06T15:26:16;100215.75;;;8.25;42.81
79144;BME280;68551;47.484;19.092;2023-04-06T15:29:18;100216.56;;;8.25;43.54
79144;BME280;68551;47.484;19.092;2023-04-06T15:32:23;100218.88;;;8.15;43.50
79144;BME280;68551;47.484;19.092;2023-04-06T15:35:30;100227.63;;;8.17;43.53
79144;BME280;68551;47.484;19.092;2023-04-06T15:38:35;100233.75;;;7.99;45.08
79144;BME280;68551;47.484;19.092;2023-04-06T15:41:37;100229.38;;;7.59;46.70
79144;BME280;68551;47.484;19.092;2023-04-06T15:44:40;100228.34;;;7.53;46.21
79144;BME280;68551;47.484;19.092;2023-04-06T15:47:44;100234.59;;;7.60;46.16
79144;BME280;68551;47.484;19.092;2023-04-06T15:50:47;100225.00;;;7.64;45.97
79144;BME280;68551;47.484;19.092;2023-04-06T15:53:54;100225.84;;;7.71;45.94
79144;BME280;68551;47.484;19.092;2023-04-06T15:56:56;100233.34;;;7.76;45.37
79144;BME280;68551;47.484;19.092;2023-04-06T15:59:59;100234.19;;;7.76;45.56
79144;BME280;68551;47.484;19.092;2023-04-06T16:03:04;100219.59;;;7.51;45.86
79144;BME280;68551;47.484;19.092;2023-04-06T16:06:09;100232.50;;;7.49;46.24
79144;BME280;68551;47.484;19.092;2023-04-06T16:09:12;100232.91;;;7.46;46.32
79144;BME280;68551;47.484;19.092;2023-04-06T16:12:14;100234.78;;;7.59;46.59
79144;BME280;68551;47.484;19.092;2023-04-06T16:15:19;100217.91;;;7.63;45.73